sensor_id;sensor_type;location;lat;lon;timestamp;temperature;humidity
41318;DHT22;27067;51.554;7.026;2022-09-09T00:06:59;23.20;88.50
41318;DHT22;27067;51.554;7.026;2022-09-09T00:09:28;23.20;88.60
41318;DHT22;27067;51.554;7.026;2022-09-09T00:11:55;23.20;88.50
41318;DHT22;27067;51.554;7.026;2022-09-09T00:14:44;23.20;89.30
41318;DHT22;27067;51.554;7.026;2022-09-09T00:17:12;23.20;88.70
41318;DHT22;27067;51.554;7.026;2022-09-09T00:19:47;23.20;88.70
41318;DHT22;27067;51.554;7.026;2022-09-09T00:24:54;23.20;88.80
41318;DHT22;27067;51.554;7.026;2022-09-09T00:27:34;23.20;88.80
41318;DHT22;27067;51.554;7.026;2022-09-09T00:30:16;23.20;88.70
41318;DHT22;27067;51.554;7.026;2022-09-09T00:32:45;23.20;88.70
41318;DHT22;27067;51.554;7.026;2022-09-09T00:35:16;23.20;88.60
41318;DHT22;27067;51.554;7.026;2022-09-09T00:37:43;23.20;88.50
41318;DHT22;27067;51.554;7.026;2022-09-09T00:40:18;23.20;88.50
41318;DHT22;27067;51.554;7.026;2022-09-09T00:42:44;23.20;88.50
41318;DHT22;27067;51.554;7.026;2022-09-09T00:47:46;23.10;88.60
41318;DHT22;27067;51.554;7.026;2022-09-09T00:55:28;23.20;88.60
41318;DHT22;27067;51.554;7.026;2022-09-09T00:57:57;23.20;88.50
41318;DHT22;27067;51.554;7.026;2022-09-09T01:00:27;23.20;88.50
41318;DHT22;27067;51.554;7.026;2022-09-09T01:07:57;23.20;88.50
41318;DHT22;27067;51.554;7.026;2022-09-09T01:13:11;23.10;88.60
41318;DHT22;27067;51.554;7.026;2022-09-09T01:15:39;23.20;88.60
41318;DHT22;27067;51.554;7.026;2022-09-09T01:18:13;23.20;88.50
41318;DHT22;27067;51.554;7.026;2022-09-09T01:23:29;23.20;88.40
41318;DHT22;27067;51.554;7.026;2022-09-09T01:28:38;23.20;88.50
41318;DHT22;27067;51.554;7.026;2022-09-09T01:31:04;23.20;88.50
41318;DHT22;27067;51.554;7.026;2022-09-09T01:33:31;23.10;88.50
41318;DHT22;27067;51.554;7.026;2022-09-09T01:36:01;23.20;88.60
41318;DHT22;27067;51.554;7.026;2022-09-09T01:38:27;23.10;88.50
41318;DHT22;27067;51.554;7.026;2022-09-09T01:40:53;23.20;88.60
41318;DHT22;27067;51.554;7.026;2022-09-09T01:43:20;23.10;88.50
41318;DHT22;27067;51.554;7.026;2022-09-09T01:45:45;23.20;88.50
41318;DHT22;27067;51.554;7.026;2022-09-09T01:48:12;23.10;88.50
41318;DHT22;27067;51.554;7.026;2022-09-09T01:50:38;23.20;88.60
41318;DHT22;27067;51.554;7.026;2022-09-09T01:53:03;23.10;88.60
41318;DHT22;27067;51.554;7.026;2022-09-09T01:55:30;23.20;88.60
41318;DHT22;27067;51.554;7.026;2022-09-09T02:00:28;23.10;88.50
41318;DHT22;27067;51.554;7.026;2022-09-09T02:03:12;23.10;88.50
41318;DHT22;27067;51.554;7.026;2022-09-09T02:05:43;23.10;88.60
41318;DHT22;27067;51.554;7.026;2022-09-09T02:08:11;23.10;88.60
41318;DHT22;27067;51.554;7.026;2022-09-09T02:10:42;23.10;88.70
41318;DHT22;27067;51.554;7.026;2022-09-09T02:13:11;23.10;88.90
41318;DHT22;27067;51.554;7.026;2022-09-09T02:15:55;23.10;88.80
41318;DHT22;27067;51.554;7.026;2022-09-09T02:21:09;23.10;89.10
41318;DHT22;27067;51.554;7.026;2022-09-09T02:23:37;23.10;89.10
41318;DHT22;27067;51.554;7.026;2022-09-09T02:26:04;23.10;89.10
41318;DHT22;27067;51.554;7.026;2022-09-09T02:28:31;23.10;89.10
41318;DHT22;27067;51.554;7.026;2022-09-09T02:30:58;23.10;89.20
41318;DHT22;27067;51.554;7.026;2022-09-09T02:33:25;23.10;89.10
41318;DHT22;27067;51.554;7.026;2022-09-09T02:35:51;23.10;89.00
41318;DHT22;27067;51.554;7.026;2022-09-09T02:38:17;23.10;88.90
41318;DHT22;27067;51.554;7.026;2022-09-09T02:40:44;23.10;88.90
41318;DHT22;27067;51.554;7.026;2022-09-09T02:43:10;23.60;89.20
41318;DHT22;27067;51.554;7.026;2022-09-09T02:45:39;23.10;88.90
41318;DHT22;27067;51.554;7.026;2022-09-09T02:53:47;23.10;89.40
41318;DHT22;27067;51.554;7.026;2022-09-09T02:56:15;23.10;88.80
41318;DHT22;27067;51.554;7.026;2022-09-09T02:58:41;23.10;88.80
41318;DHT22;27067;51.554;7.026;2022-09-09T03:01:07;23.10;88.80
41318;DHT22;27067;51.554;7.026;2022-09-09T03:03:34;23.10;88.80
41318;DHT22;27067;51.554;7.026;2022-09-09T03:06:00;23.00;89.40
41318;DHT22;27067;51.554;7.026;2022-09-09T03:08:25;23.10;88.80
41318;DHT22;27067;51.554;7.026;2022-09-09T03:10:53;23.10;88.80
41318;DHT22;27067;51.554;7.026;2022-09-09T03:13:19;23.10;88.80
41318;DHT22;27067;51.554;7.026;2022-09-09T03:15:45;23.10;88.70
41318;DHT22;27067;51.554;7.026;2022-09-09T03:18:10;23.00;88.70
41318;DHT22;27067;51.554;7.026;2022-09-09T03:20:36;23.10;88.80
41318;DHT22;27067;51.554;7.026;2022-09-09T03:23:01;23.00;88.70
41318;DHT22;27067;51.554;7.026;2022-09-09T03:25:27;23.00;88.70
41318;DHT22;27067;51.554;7.026;2022-09-09T03:27:55;23.00;88.80
41318;DHT22;27067;51.554;7.026;2022-09-09T03:30:22;23.00;88.80
41318;DHT22;27067;51.554;7.026;2022-09-09T03:32:47;23.00;88.90
41318;DHT22;27067;51.554;7.026;2022-09-09T03:35:13;23.00;89.00
41318;DHT22;27067;51.554;7.026;2022-09-09T03:37:39;23.00;89.00
41318;DHT22;27067;51.554;7.026;2022-09-09T03:40:04;23.00;89.00
41318;DHT22;27067;51.554;7.026;2022-09-09T03:42:30;23.00;89.00
41318;DHT22;27067;51.554;7.026;2022-09-09T03:44:57;23.00;89.00
41318;DHT22;27067;51.554;7.026;2022-09-09T03:47:23;23.00;89.10
41318;DHT22;27067;51.554;7.026;2022-09-09T03:49:48;23.00;89.30
41318;DHT22;27067;51.554;7.026;2022-09-09T03:52:14;22.90;90.10
41318;DHT22;27067;51.554;7.026;2022-09-09T03:54:40;23.00;90.40
41318;DHT22;27067;51.554;7.026;2022-09-09T03:57:08;23.00;90.60
41318;DHT22;27067;51.554;7.026;2022-09-09T03:59:34;22.90;91.00
41318;DHT22;27067;51.554;7.026;2022-09-09T04:02:00;23.00;91.10
41318;DHT22;27067;51.554;7.026;2022-09-09T04:04:25;23.00;91.10
41318;DHT22;27067;51.554;7.026;2022-09-09T04:06:51;23.00;91.10
41318;DHT22;27067;51.554;7.026;2022-09-09T04:09:17;23.00;90.90
41318;DHT22;27067;51.554;7.026;2022-09-09T04:11:43;23.00;90.80
41318;DHT22;27067;51.554;7.026;2022-09-09T04:14:08;22.90;90.70
41318;DHT22;27067;51.554;7.026;2022-09-09T04:16:34;22.90;90.70
41318;DHT22;27067;51.554;7.026;2022-09-09T04:19:02;22.90;90.50
41318;DHT22;27067;51.554;7.026;2022-09-09T04:21:29;23.00;90.40
41318;DHT22;27067;51.554;7.026;2022-09-09T04:23:55;23.00;90.40
41318;DHT22;27067;51.554;7.026;2022-09-09T04:26:20;22.90;90.30
41318;DHT22;27067;51.554;7.026;2022-09-09T04:28:46;22.90;90.20
41318;DHT22;27067;51.554;7.026;2022-09-09T04:31:14;22.90;90.20
41318;DHT22;27067;51.554;7.026;2022-09-09T04:33:40;22.90;90.10
41318;DHT22;27067;51.554;7.026;2022-09-09T04:36:06;22.90;90.10
41318;DHT22;27067;51.554;7.026;2022-09-09T04:38:33;22.90;90.10
41318;DHT22;27067;51.554;7.026;2022-09-09T04:40:58;22.90;90.10
41318;DHT22;27067;51.554;7.026;2022-09-09T04:43:24;22.90;90.00
41318;DHT22;27067;51.554;7.026;2022-09-09T04:45:52;22.90;89.90
41318;DHT22;27067;51.554;7.026;2022-09-09T04:48:18;22.90;89.80
41318;DHT22;27067;51.554;7.026;2022-09-09T04:50:53;22.90;89.80
41318;DHT22;27067;51.554;7.026;2022-09-09T04:53:18;22.90;89.80
41318;DHT22;27067;51.554;7.026;2022-09-09T04:55:44;22.90;89.70
41318;DHT22;27067;51.554;7.026;2022-09-09T04:58:09;22.90;89.70
41318;DHT22;27067;51.554;7.026;2022-09-09T05:00:35;22.90;89.60
41318;DHT22;27067;51.554;7.026;2022-09-09T05:03:06;22.90;89.50
41318;DHT22;27067;51.554;7.026;2022-09-09T05:05:34;22.80;89.50
41318;DHT22;27067;51.554;7.026;2022-09-09T05:08:04;22.80;89.40
41318;DHT22;27067;51.554;7.026;2022-09-09T05:10:30;22.80;89.50
41318;DHT22;27067;51.554;7.026;2022-09-09T05:12:56;22.80;89.50
41318;DHT22;27067;51.554;7.026;2022-09-09T05:15:22;22.80;89.40
41318;DHT22;27067;51.554;7.026;2022-09-09T05:17:47;22.80;89.50
41318;DHT22;27067;51.554;7.026;2022-09-09T05:20:13;22.80;89.50
41318;DHT22;27067;51.554;7.026;2022-09-09T05:22:38;22.80;89.50
41318;DHT22;27067;51.554;7.026;2022-09-09T05:25:04;22.80;89.40
41318;DHT22;27067;51.554;7.026;2022-09-09T05:27:30;22.80;89.50
41318;DHT22;27067;51.554;7.026;2022-09-09T05:29:58;22.80;89.40
41318;DHT22;27067;51.554;7.026;2022-09-09T05:32:24;22.80;89.60
41318;DHT22;27067;51.554;7.026;2022-09-09T05:34:49;22.80;89.70
41318;DHT22;27067;51.554;7.026;2022-09-09T05:37:15;22.80;89.60
41318;DHT22;27067;51.554;7.026;2022-09-09T05:39:41;22.80;89.50
41318;DHT22;27067;51.554;7.026;2022-09-09T05:42:07;22.80;89.60
41318;DHT22;27067;51.554;7.026;2022-09-09T05:44:33;22.80;89.60
41318;DHT22;27067;51.554;7.026;2022-09-09T05:46:58;22.80;89.50
41318;DHT22;27067;51.554;7.026;2022-09-09T05:49:24;22.80;89.50
41318;DHT22;27067;51.554;7.026;2022-09-09T05:51:50;22.80;89.50
41318;DHT22;27067;51.554;7.026;2022-09-09T05:54:16;22.80;89.50
41318;DHT22;27067;51.554;7.026;2022-09-09T05:56:42;22.80;89.50
41318;DHT22;27067;51.554;7.026;2022-09-09T05:59:07;22.80;89.50
41318;DHT22;27067;51.554;7.026;2022-09-09T06:01:34;22.80;89.40
41318;DHT22;27067;51.554;7.026;2022-09-09T06:04:00;22.80;89.50
41318;DHT22;27067;51.554;7.026;2022-09-09T06:06:27;22.80;89.50
41318;DHT22;27067;51.554;7.026;2022-09-09T06:08:54;22.70;89.40
41318;DHT22;27067;51.554;7.026;2022-09-09T06:11:23;22.80;89.40
41318;DHT22;27067;51.554;7.026;2022-09-09T06:13:50;22.80;89.40
41318;DHT22;27067;51.554;7.026;2022-09-09T06:16:19;22.80;89.40
41318;DHT22;27067;51.554;7.026;2022-09-09T06:18:44;22.80;89.40
41318;DHT22;27067;51.554;7.026;2022-09-09T06:21:20;22.80;89.50
41318;DHT22;27067;51.554;7.026;2022-09-09T06:23:46;22.80;89.50
41318;DHT22;27067;51.554;7.026;2022-09-09T06:26:14;22.70;89.40
41318;DHT22;27067;51.554;7.026;2022-09-09T06:28:39;22.80;89.30
41318;DHT22;27067;51.554;7.026;2022-09-09T06:31:06;22.70;89.30
41318;DHT22;27067;51.554;7.026;2022-09-09T06:33:33;22.80;89.50
41318;DHT22;27067;51.554;7.026;2022-09-09T06:36:00;22.70;90.60
41318;DHT22;27067;51.554;7.026;2022-09-09T06:38:26;22.70;91.40
41318;DHT22;27067;51.554;7.026;2022-09-09T06:40:52;22.80;91.70
41318;DHT22;27067;51.554;7.026;2022-09-09T06:43:20;22.80;91.70
41318;DHT22;27067;51.554;7.026;2022-09-09T06:45:53;22.80;91.70
41318;DHT22;27067;51.554;7.026;2022-09-09T06:48:18;22.70;92.00
41318;DHT22;27067;51.554;7.026;2022-09-09T06:50:44;22.70;91.80
41318;DHT22;27067;51.554;7.026;2022-09-09T06:53:09;22.80;91.50
41318;DHT22;27067;51.554;7.026;2022-09-09T06:55:35;22.80;91.30
41318;DHT22;27067;51.554;7.026;2022-09-09T06:58:00;22.70;91.10
41318;DHT22;27067;51.554;7.026;2022-09-09T07:00:27;22.70;91.10
41318;DHT22;27067;51.554;7.026;2022-09-09T07:02:53;22.70;90.70
41318;DHT22;27067;51.554;7.026;2022-09-09T07:05:19;22.70;90.80
41318;DHT22;27067;51.554;7.026;2022-09-09T07:07:45;22.70;90.70
41318;DHT22;27067;51.554;7.026;2022-09-09T07:10:10;22.70;90.70
41318;DHT22;27067;51.554;7.026;2022-09-09T07:12:36;22.70;90.70
41318;DHT22;27067;51.554;7.026;2022-09-09T07:15:02;22.70;90.60
41318;DHT22;27067;51.554;7.026;2022-09-09T07:17:28;22.70;90.50
41318;DHT22;27067;51.554;7.026;2022-09-09T07:19:54;22.70;90.40
41318;DHT22;27067;51.554;7.026;2022-09-09T07:22:19;22.60;90.50
41318;DHT22;27067;51.554;7.026;2022-09-09T07:24:45;22.70;90.40
41318;DHT22;27067;51.554;7.026;2022-09-09T07:27:11;22.70;90.40
41318;DHT22;27067;51.554;7.026;2022-09-09T07:29:36;22.70;90.30
41318;DHT22;27067;51.554;7.026;2022-09-09T07:32:02;22.60;90.20
41318;DHT22;27067;51.554;7.026;2022-09-09T07:34:29;22.60;90.00
41318;DHT22;27067;51.554;7.026;2022-09-09T07:36:55;22.60;90.00
41318;DHT22;27067;51.554;7.026;2022-09-09T07:39:22;22.60;89.70
41318;DHT22;27067;51.554;7.026;2022-09-09T07:41:48;22.70;89.50
41318;DHT22;27067;51.554;7.026;2022-09-09T07:44:15;22.60;89.50
41318;DHT22;27067;51.554;7.026;2022-09-09T07:46:41;22.60;89.70
41318;DHT22;27067;51.554;7.026;2022-09-09T07:49:07;22.60;89.60
41318;DHT22;27067;51.554;7.026;2022-09-09T07:51:34;22.60;89.30
41318;DHT22;27067;51.554;7.026;2022-09-09T07:54:01;22.60;89.30
41318;DHT22;27067;51.554;7.026;2022-09-09T07:56:27;22.60;89.40
41318;DHT22;27067;51.554;7.026;2022-09-09T07:58:54;22.60;89.10
41318;DHT22;27067;51.554;7.026;2022-09-09T08:01:28;22.60;89.20
41318;DHT22;27067;51.554;7.026;2022-09-09T08:03:58;22.60;89.10
41318;DHT22;27067;51.554;7.026;2022-09-09T08:06:27;22.60;88.90
41318;DHT22;27067;51.554;7.026;2022-09-09T08:08:53;22.60;88.80
41318;DHT22;27067;51.554;7.026;2022-09-09T08:11:20;22.60;88.70
41318;DHT22;27067;51.554;7.026;2022-09-09T08:13:45;22.60;88.50
41318;DHT22;27067;51.554;7.026;2022-09-09T08:16:14;22.60;88.80
41318;DHT22;27067;51.554;7.026;2022-09-09T08:18:40;22.50;88.60
41318;DHT22;27067;51.554;7.026;2022-09-09T08:21:12;22.50;88.40
41318;DHT22;27067;51.554;7.026;2022-09-09T08:23:39;22.60;88.50
41318;DHT22;27067;51.554;7.026;2022-09-09T08:26:13;22.50;88.50
41318;DHT22;27067;51.554;7.026;2022-09-09T08:28:40;22.50;87.90
41318;DHT22;27067;51.554;7.026;2022-09-09T08:31:07;22.50;87.20
41318;DHT22;27067;51.554;7.026;2022-09-09T08:33:32;22.50;87.00
41318;DHT22;27067;51.554;7.026;2022-09-09T08:35:58;22.00;87.00
41318;DHT22;27067;51.554;7.026;2022-09-09T08:38:24;22.50;87.20
41318;DHT22;27067;51.554;7.026;2022-09-09T08:40:50;22.50;87.20
41318;DHT22;27067;51.554;7.026;2022-09-09T08:43:19;22.50;87.10
41318;DHT22;27067;51.554;7.026;2022-09-09T08:45:58;22.50;87.30
41318;DHT22;27067;51.554;7.026;2022-09-09T08:51:00;22.50;87.40
41318;DHT22;27067;51.554;7.026;2022-09-09T08:53:27;22.50;87.50
41318;DHT22;27067;51.554;7.026;2022-09-09T08:55:57;22.50;87.50
41318;DHT22;27067;51.554;7.026;2022-09-09T08:58:30;22.60;87.60
41318;DHT22;27067;51.554;7.026;2022-09-09T09:01:02;22.60;87.70
41318;DHT22;27067;51.554;7.026;2022-09-09T09:06:12;22.50;87.80
41318;DHT22;27067;51.554;7.026;2022-09-09T09:08:45;22.50;87.70
41318;DHT22;27067;51.554;7.026;2022-09-09T09:11:12;22.60;87.90
41318;DHT22;27067;51.554;7.026;2022-09-09T09:13:43;22.50;87.90
41318;DHT22;27067;51.554;7.026;2022-09-09T09:30:17;22.50;88.10
41318;DHT22;27067;51.554;7.026;2022-09-09T09:32:48;22.50;88.10
41318;DHT22;27067;51.554;7.026;2022-09-09T09:35:15;22.50;88.10
41318;DHT22;27067;51.554;7.026;2022-09-09T09:37:40;22.50;88.10
41318;DHT22;27067;51.554;7.026;2022-09-09T09:40:07;22.50;87.90
41318;DHT22;27067;51.554;7.026;2022-09-09T09:42:34;22.50;87.50
41318;DHT22;27067;51.554;7.026;2022-09-09T09:50:54;22.50;87.40
41318;DHT22;27067;51.554;7.026;2022-09-09T09:53:24;22.50;87.20
41318;DHT22;27067;51.554;7.026;2022-09-09T09:55:55;22.50;87.30
41318;DHT22;27067;51.554;7.026;2022-09-09T09:58:21;22.40;87.40
41318;DHT22;27067;51.554;7.026;2022-09-09T10:00:47;22.40;87.10
41318;DHT22;27067;51.554;7.026;2022-09-09T10:03:28;22.30;86.70
41318;DHT22;27067;51.554;7.026;2022-09-09T10:05:54;22.30;86.60
41318;DHT22;27067;51.554;7.026;2022-09-09T10:08:22;22.20;86.30
41318;DHT22;27067;51.554;7.026;2022-09-09T10:13:36;22.10;85.30
41318;DHT22;27067;51.554;7.026;2022-09-09T10:18:38;21.90;82.20
41318;DHT22;27067;51.554;7.026;2022-09-09T10:21:12;21.80;83.50
41318;DHT22;27067;51.554;7.026;2022-09-09T10:36:23;21.70;83.10
41318;DHT22;27067;51.554;7.026;2022-09-09T10:41:45;21.70;81.40
41318;DHT22;27067;51.554;7.026;2022-09-09T10:56:55;21.70;81.80
41318;DHT22;27067;51.554;7.026;2022-09-09T10:59:24;21.80;80.80
41318;DHT22;27067;51.554;7.026;2022-09-09T11:01:52;21.80;81.30
41318;DHT22;27067;51.554;7.026;2022-09-09T11:04:22;21.80;81.60
41318;DHT22;27067;51.554;7.026;2022-09-09T11:06:48;21.80;81.60
41318;DHT22;27067;51.554;7.026;2022-09-09T11:09:18;21.80;80.90
41318;DHT22;27067;51.554;7.026;2022-09-09T11:11:46;21.80;81.20
41318;DHT22;27067;51.554;7.026;2022-09-09T11:14:27;21.80;81.30
41318;DHT22;27067;51.554;7.026;2022-09-09T11:16:58;21.80;81.30
41318;DHT22;27067;51.554;7.026;2022-09-09T11:21:59;21.80;81.20
41318;DHT22;27067;51.554;7.026;2022-09-09T11:24:37;21.80;81.80
41318;DHT22;27067;51.554;7.026;2022-09-09T11:27:14;21.80;80.80
41318;DHT22;27067;51.554;7.026;2022-09-09T11:42:46;21.70;81.10
41318;DHT22;27067;51.554;7.026;2022-09-09T11:45:24;21.70;80.90
41318;DHT22;27067;51.554;7.026;2022-09-09T11:47:53;21.60;80.90
41318;DHT22;27067;51.554;7.026;2022-09-09T11:52:47;21.70;80.60
41318;DHT22;27067;51.554;7.026;2022-09-09T11:55:33;21.70;80.80
41318;DHT22;27067;51.554;7.026;2022-09-09T11:58:03;21.70;80.80
41318;DHT22;27067;51.554;7.026;2022-09-09T12:02:55;21.70;80.20
41318;DHT22;27067;51.554;7.026;2022-09-09T12:05:20;21.70;79.60
41318;DHT22;27067;51.554;7.026;2022-09-09T12:07:51;21.70;79.50
41318;DHT22;27067;51.554;7.026;2022-09-09T12:10:26;21.80;79.90
41318;DHT22;27067;51.554;7.026;2022-09-09T12:12:52;21.80;79.60
41318;DHT22;27067;51.554;7.026;2022-09-09T12:15:19;21.80;79.80
41318;DHT22;27067;51.554;7.026;2022-09-09T12:17:50;21.80;80.10
41318;DHT22;27067;51.554;7.026;2022-09-09T12:20:17;21.50;80.10
41318;DHT22;27067;51.554;7.026;2022-09-09T12:25:14;21.90;80.10
41318;DHT22;27067;51.554;7.026;2022-09-09T12:27:56;21.90;80.10
41318;DHT22;27067;51.554;7.026;2022-09-09T12:30:24;21.90;80.20
41318;DHT22;27067;51.554;7.026;2022-09-09T12:33:01;21.90;80.50
41318;DHT22;27067;51.554;7.026;2022-09-09T12:35:27;21.90;80.60
41318;DHT22;27067;51.554;7.026;2022-09-09T12:37:58;21.90;80.70
41318;DHT22;27067;51.554;7.026;2022-09-09T12:40:29;21.90;80.70
41318;DHT22;27067;51.554;7.026;2022-09-09T12:42:56;21.90;80.80
41318;DHT22;27067;51.554;7.026;2022-09-09T12:45:25;22.00;81.00
41318;DHT22;27067;51.554;7.026;2022-09-09T12:47:58;21.90;81.30
41318;DHT22;27067;51.554;7.026;2022-09-09T12:50:26;21.90;81.70
41318;DHT22;27067;51.554;7.026;2022-09-09T12:52:54;21.80;82.40
41318;DHT22;27067;51.554;7.026;2022-09-09T12:55:38;21.80;82.10
41318;DHT22;27067;51.554;7.026;2022-09-09T12:58:05;21.90;82.40
41318;DHT22;27067;51.554;7.026;2022-09-09T13:00:32;21.90;83.40
41318;DHT22;27067;51.554;7.026;2022-09-09T13:03:02;21.80;83.30
41318;DHT22;27067;51.554;7.026;2022-09-09T13:05:31;21.80;83.00
41318;DHT22;27067;51.554;7.026;2022-09-09T13:08:02;21.80;82.90
41318;DHT22;27067;51.554;7.026;2022-09-09T13:10:29;21.80;82.80
41318;DHT22;27067;51.554;7.026;2022-09-09T13:12:57;21.80;82.80
41318;DHT22;27067;51.554;7.026;2022-09-09T13:15:24;21.80;83.00
41318;DHT22;27067;51.554;7.026;2022-09-09T13:17:52;21.80;83.20
41318;DHT22;27067;51.554;7.026;2022-09-09T13:20:19;21.80;83.60
41318;DHT22;27067;51.554;7.026;2022-09-09T13:22:45;21.90;83.80
41318;DHT22;27067;51.554;7.026;2022-09-09T13:25:18;21.90;83.70
41318;DHT22;27067;51.554;7.026;2022-09-09T13:28:18;21.90;83.90
41318;DHT22;27067;51.554;7.026;2022-09-09T13:30:36;21.90;84.30
41318;DHT22;27067;51.554;7.026;2022-09-09T13:33:17;21.90;84.40
41318;DHT22;27067;51.554;7.026;2022-09-09T13:38:15;21.90;84.40
41318;DHT22;27067;51.554;7.026;2022-09-09T13:40:51;21.90;84.50
41318;DHT22;27067;51.554;7.026;2022-09-09T13:43:18;21.90;84.70
41318;DHT22;27067;51.554;7.026;2022-09-09T13:45:52;21.90;85.00
41318;DHT22;27067;51.554;7.026;2022-09-09T13:48:19;21.90;85.00
41318;DHT22;27067;51.554;7.026;2022-09-09T13:50:53;22.00;85.40
41318;DHT22;27067;51.554;7.026;2022-09-09T13:53:18;22.00;85.10
41318;DHT22;27067;51.554;7.026;2022-09-09T13:55:44;22.00;85.10
41318;DHT22;27067;51.554;7.026;2022-09-09T13:58:14;22.00;85.30
41318;DHT22;27067;51.554;7.026;2022-09-09T14:00:40;22.00;85.40
41318;DHT22;27067;51.554;7.026;2022-09-09T14:03:06;22.00;85.40
41318;DHT22;27067;51.554;7.026;2022-09-09T14:05:33;22.00;85.40
41318;DHT22;27067;51.554;7.026;2022-09-09T14:07:59;22.00;85.60
41318;DHT22;27067;51.554;7.026;2022-09-09T14:10:25;22.00;85.60
41318;DHT22;27067;51.554;7.026;2022-09-09T14:12:51;22.00;85.50
41318;DHT22;27067;51.554;7.026;2022-09-09T14:15:18;22.00;85.60
41318;DHT22;27067;51.554;7.026;2022-09-09T14:17:44;22.00;85.60
41318;DHT22;27067;51.554;7.026;2022-09-09T14:20:09;22.00;85.80
41318;DHT22;27067;51.554;7.026;2022-09-09T14:22:37;22.00;86.00
41318;DHT22;27067;51.554;7.026;2022-09-09T14:25:04;22.00;86.00
41318;DHT22;27067;51.554;7.026;2022-09-09T14:27:31;22.00;85.80
41318;DHT22;27067;51.554;7.026;2022-09-09T14:29:57;22.00;86.00
41318;DHT22;27067;51.554;7.026;2022-09-09T14:32:23;22.10;85.90
41318;DHT22;27067;51.554;7.026;2022-09-09T14:34:48;22.10;86.00
41318;DHT22;27067;51.554;7.026;2022-09-09T14:37:15;22.10;86.10
41318;DHT22;27067;51.554;7.026;2022-09-09T14:39:41;22.10;86.20
41318;DHT22;27067;51.554;7.026;2022-09-09T14:42:09;22.10;86.10
41318;DHT22;27067;51.554;7.026;2022-09-09T14:44:36;22.10;86.20
41318;DHT22;27067;51.554;7.026;2022-09-09T14:47:04;22.00;86.00
41318;DHT22;27067;51.554;7.026;2022-09-09T14:49:29;22.10;86.20
41318;DHT22;27067;51.554;7.026;2022-09-09T14:51:55;22.10;86.70
41318;DHT22;27067;51.554;7.026;2022-09-09T14:54:20;22.10;86.90
41318;DHT22;27067;51.554;7.026;2022-09-09T14:56:48;22.10;86.80
41318;DHT22;27067;51.554;7.026;2022-09-09T14:59:14;22.10;86.70
41318;DHT22;27067;51.554;7.026;2022-09-09T15:01:39;22.10;87.00
41318;DHT22;27067;51.554;7.026;2022-09-09T15:04:05;22.10;87.00
41318;DHT22;27067;51.554;7.026;2022-09-09T15:06:31;22.10;87.10
41318;DHT22;27067;51.554;7.026;2022-09-09T15:08:58;22.10;87.10
41318;DHT22;27067;51.554;7.026;2022-09-09T15:11:28;22.10;87.00
41318;DHT22;27067;51.554;7.026;2022-09-09T15:13:55;22.00;86.90
41318;DHT22;27067;51.554;7.026;2022-09-09T15:16:23;22.00;86.80
41318;DHT22;27067;51.554;7.026;2022-09-09T15:18:51;21.90;86.70
41318;DHT22;27067;51.554;7.026;2022-09-09T15:21:18;21.90;86.70
41318;DHT22;27067;51.554;7.026;2022-09-09T15:23:44;21.90;86.90
41318;DHT22;27067;51.554;7.026;2022-09-09T15:26:10;21.90;87.00
41318;DHT22;27067;51.554;7.026;2022-09-09T15:28:36;21.90;86.90
41318;DHT22;27067;51.554;7.026;2022-09-09T15:31:07;21.90;87.10
41318;DHT22;27067;51.554;7.026;2022-09-09T15:33:33;21.90;87.30
41318;DHT22;27067;51.554;7.026;2022-09-09T15:35:59;21.90;87.10
41318;DHT22;27067;51.554;7.026;2022-09-09T15:38:24;21.90;87.20
41318;DHT22;27067;51.554;7.026;2022-09-09T15:40:54;22.00;87.20
41318;DHT22;27067;51.554;7.026;2022-09-09T15:43:20;22.00;87.20
41318;DHT22;27067;51.554;7.026;2022-09-09T15:45:46;21.90;87.80
41318;DHT22;27067;51.554;7.026;2022-09-09T15:48:11;22.00;87.20
41318;DHT22;27067;51.554;7.026;2022-09-09T15:50:37;22.00;87.40
41318;DHT22;27067;51.554;7.026;2022-09-09T15:53:02;22.00;87.40
41318;DHT22;27067;51.554;7.026;2022-09-09T15:55:28;22.00;87.40
41318;DHT22;27067;51.554;7.026;2022-09-09T15:57:54;22.00;87.50
41318;DHT22;27067;51.554;7.026;2022-09-09T16:00:20;22.00;87.80
41318;DHT22;27067;51.554;7.026;2022-09-09T16:02:49;22.00;87.40
41318;DHT22;27067;51.554;7.026;2022-09-09T16:05:14;22.00;87.60
41318;DHT22;27067;51.554;7.026;2022-09-09T16:07:40;22.00;87.70
41318;DHT22;27067;51.554;7.026;2022-09-09T16:10:07;22.00;87.40
41318;DHT22;27067;51.554;7.026;2022-09-09T16:12:33;22.00;87.60
41318;DHT22;27067;51.554;7.026;2022-09-09T16:14:59;22.00;88.10
41318;DHT22;27067;51.554;7.026;2022-09-09T16:17:24;22.00;88.20
41318;DHT22;27067;51.554;7.026;2022-09-09T16:19:50;22.00;88.00
41318;DHT22;27067;51.554;7.026;2022-09-09T16:22:15;22.00;88.10
41318;DHT22;27067;51.554;7.026;2022-09-09T16:24:43;22.00;88.20
41318;DHT22;27067;51.554;7.026;2022-09-09T16:27:09;22.10;88.00
41318;DHT22;27067;51.554;7.026;2022-09-09T16:29:36;22.00;87.80
41318;DHT22;27067;51.554;7.026;2022-09-09T16:32:02;22.00;88.00
41318;DHT22;27067;51.554;7.026;2022-09-09T16:34:27;22.00;87.90
41318;DHT22;27067;51.554;7.026;2022-09-09T16:36:53;22.00;87.90
41318;DHT22;27067;51.554;7.026;2022-09-09T16:39:19;22.00;87.90
41318;DHT22;27067;51.554;7.026;2022-09-09T16:41:46;22.00;87.80
41318;DHT22;27067;51.554;7.026;2022-09-09T16:44:13;22.00;87.80
41318;DHT22;27067;51.554;7.026;2022-09-09T16:46:40;22.00;87.80
41318;DHT22;27067;51.554;7.026;2022-09-09T16:49:07;22.00;87.80
41318;DHT22;27067;51.554;7.026;2022-09-09T16:51:37;22.00;87.70
41318;DHT22;27067;51.554;7.026;2022-09-09T16:54:04;21.90;87.60
41318;DHT22;27067;51.554;7.026;2022-09-09T16:56:32;22.00;87.60
41318;DHT22;27067;51.554;7.026;2022-09-09T16:59:00;22.00;87.90
41318;DHT22;27067;51.554;7.026;2022-09-09T17:01:27;22.00;88.20
41318;DHT22;27067;51.554;7.026;2022-09-09T17:03:56;22.00;88.10
41318;DHT22;27067;51.554;7.026;2022-09-09T17:06:22;22.00;88.10
41318;DHT22;27067;51.554;7.026;2022-09-09T17:08:53;22.00;88.00
41318;DHT22;27067;51.554;7.026;2022-09-09T17:11:19;22.00;88.20
41318;DHT22;27067;51.554;7.026;2022-09-09T17:13:45;22.00;88.40
41318;DHT22;27067;51.554;7.026;2022-09-09T17:16:11;22.00;88.40
41318;DHT22;27067;51.554;7.026;2022-09-09T17:18:37;22.00;88.40
41318;DHT22;27067;51.554;7.026;2022-09-09T17:21:03;22.00;88.20
41318;DHT22;27067;51.554;7.026;2022-09-09T17:23:29;22.00;88.30
41318;DHT22;27067;51.554;7.026;2022-09-09T17:25:56;22.00;88.50
41318;DHT22;27067;51.554;7.026;2022-09-09T17:28:22;22.00;88.50
41318;DHT22;27067;51.554;7.026;2022-09-09T17:30:51;22.00;88.50
41318;DHT22;27067;51.554;7.026;2022-09-09T17:33:17;22.00;88.40
41318;DHT22;27067;51.554;7.026;2022-09-09T17:35:46;22.00;88.40
41318;DHT22;27067;51.554;7.026;2022-09-09T17:38:11;22.00;88.20